sensor_id;sensor_type;location;lat;lon;timestamp;pressure;altitude;pressure_sealevel;temperature;humidity
44765;BME280;30484;52.382;5.260;2023-02-18T00:01:29;102255.94;;;13.06;100.00
44765;BME280;30484;52.382;5.260;2023-02-18T00:04:10;102255.66;;;13.38;100.00
44765;BME280;30484;52.382;5.260;2023-02-18T00:06:40;102258.97;;;13.21;100.00
44765;BME280;30484;52.382;5.260;2023-02-18T00:09:10;102260.31;;;13.09;100.00
44765;BME280;30484;52.382;5.260;2023-02-18T00:11:41;102262.72;;;13.40;100.00
44765;BME280;30484;52.382;5.260;2023-02-18T00:14:13;102261.91;;;13.15;100.00
44765;BME280;30484;52.382;5.260;2023-02-18T00:16:44;102266.47;;;13.12;100.00
44765;BME280;30484;52.382;5.260;2023-02-18T00:19:17;102255.66;;;13.14;100.00
44765;BME280;30484;52.382;5.260;2023-02-18T00:21:47;102257.50;;;13.12;100.00
44765;BME280;30484;52.382;5.260;2023-02-18T00:24:17;102271.13;;;13.07;100.00
44765;BME280;30484;52.382;5.260;2023-02-18T00:26:51;102264.69;;;13.11;100.00
44765;BME280;30484;52.382;5.260;2023-02-18T00:29:20;102262.22;;;13.05;100.00
44765;BME280;30484;52.382;5.260;2023-02-18T00:31:50;102265.22;;;12.98;100.00
44765;BME280;30484;52.382;5.260;2023-02-18T00:34:19;102262.03;;;13.11;100.00
44765;BME280;30484;52.382;5.260;2023-02-18T00:36:48;102252.50;;;13.03;100.00
44765;BME280;30484;52.382;5.260;2023-02-18T00:39:22;102241.47;;;13.10;100.00
44765;BME280;30484;52.382;5.260;2023-02-18T00:41:53;102241.78;;;13.03;100.00
44765;BME280;30484;52.382;5.260;2023-02-18T00:44:22;102233.44;;;13.10;100.00
44765;BME280;30484;52.382;5.260;2023-02-18T00:46:52;102235.59;;;13.24;100.00
44765;BME280;30484;52.382;5.260;2023-02-18T00:49:22;102219.34;;;13.27;100.00
44765;BME280;30484;52.382;5.260;2023-02-18T00:51:51;102225.31;;;13.12;100.00
44765;BME280;30484;52.382;5.260;2023-02-18T00:54:21;102217.28;;;13.36;100.00
44765;BME280;30484;52.382;5.260;2023-02-18T00:57:05;102217.53;;;13.28;100.00
44765;BME280;30484;52.382;5.260;2023-02-18T00:59:34;102223.94;;;13.02;100.00
44765;BME280;30484;52.382;5.260;2023-02-18T01:02:06;102233.31;;;13.13;100.00
44765;BME280;30484;52.382;5.260;2023-02-18T01:04:37;102220.63;;;13.41;100.00
44765;BME280;30484;52.382;5.260;2023-02-18T01:07:06;102219.47;;;13.24;100.00
44765;BME280;30484;52.382;5.260;2023-02-18T01:09:51;102210.59;;;13.46;100.00
44765;BME280;30484;52.382;5.260;2023-02-18T01:12:26;102213.47;;;13.18;100.00
44765;BME280;30484;52.382;5.260;2023-02-18T01:15:01;102222.03;;;13.27;100.00
44765;BME280;30484;52.382;5.260;2023-02-18T01:17:31;102211.59;;;13.43;100.00
44765;BME280;30484;52.382;5.260;2023-02-18T01:20:02;102210.66;;;13.21;100.00
44765;BME280;30484;52.382;5.260;2023-02-18T01:22:32;102216.09;;;13.19;100.00
44765;BME280;30484;52.382;5.260;2023-02-18T01:25:04;102209.97;;;13.16;100.00
44765;BME280;30484;52.382;5.260;2023-02-18T01:27:43;102208.94;;;13.20;100.00
44765;BME280;30484;52.382;5.260;2023-02-18T01:30:17;102210.53;;;13.24;100.00
44765;BME280;30484;52.382;5.260;2023-02-18T01:32:48;102209.16;;;13.37;100.00
44765;BME280;30484;52.382;5.260;2023-02-18T01:35:25;102213.06;;;13.28;100.00
44765;BME280;30484;52.382;5.260;2023-02-18T01:37:54;102207.47;;;13.35;100.00
44765;BME280;30484;52.382;5.260;2023-02-18T01:40:27;102200.41;;;13.54;100.00
44765;BME280;30484;52.382;5.260;2023-02-18T01:42:59;102190.91;;;13.68;100.00
44765;BME280;30484;52.382;5.260;2023-02-18T01:45:56;102175.63;;;13.70;100.00
44765;BME280;30484;52.382;5.260;2023-02-18T01:48:30;102166.72;;;13.68;100.00
44765;BME280;30484;52.382;5.260;2023-02-18T01:51:08;102172.09;;;13.23;100.00
44765;BME280;30484;52.382;5.260;2023-02-18T01:53:46;102166.84;;;13.44;100.00
44765;BME280;30484;52.382;5.260;2023-02-18T01:56:25;102170.19;;;13.49;100.00
44765;BME280;30484;52.382;5.260;2023-02-18T01:59:04;102155.06;;;13.24;100.00
44765;BME280;30484;52.382;5.260;2023-02-18T02:02:27;102143.06;;;13.11;100.00
44765;BME280;30484;52.382;5.260;2023-02-18T02:05:01;102149.81;;;13.21;100.00
44765;BME280;30484;52.382;5.260;2023-02-18T02:07:30;102138.19;;;13.21;100.00
44765;BME280;30484;52.382;5.260;2023-02-18T02:10:02;102122.66;;;13.29;100.00
44765;BME280;30484;52.382;5.260;2023-02-18T02:12:49;102125.38;;;13.07;100.00
44765;BME280;30484;52.382;5.260;2023-02-18T02:15:36;102114.47;;;13.32;100.00
44765;BME280;30484;52.382;5.260;2023-02-18T02:18:50;102109.44;;;13.02;100.00
44765;BME280;30484;52.382;5.260;2023-02-18T02:25:13;102121.16;;;13.00;100.00
44765;BME280;30484;52.382;5.260;2023-02-18T02:28:28;102103.25;;;13.00;100.00
44765;BME280;30484;52.382;5.260;2023-02-18T02:34:57;102076.19;;;13.06;100.00
44765;BME280;30484;52.382;5.260;2023-02-18T02:37:34;102069.53;;;12.49;100.00
44765;BME280;30484;52.382;5.260;2023-02-18T02:40:19;102075.69;;;12.74;100.00
44765;BME280;30484;52.382;5.260;2023-02-18T02:43:05;102060.53;;;12.95;100.00
44765;BME280;30484;52.382;5.260;2023-02-18T02:45:47;102046.09;;;13.20;100.00
44765;BME280;30484;52.382;5.260;2023-02-18T02:48:31;102053.84;;;13.06;100.00
44765;BME280;30484;52.382;5.260;2023-02-18T02:51:10;102049.84;;;13.16;100.00
44765;BME280;30484;52.382;5.260;2023-02-18T02:53:42;102047.34;;;12.89;100.00
44765;BME280;30484;52.382;5.260;2023-02-18T02:56:15;102046.84;;;12.80;100.00
44765;BME280;30484;52.382;5.260;2023-02-18T02:58:50;102049.22;;;13.09;100.00
44765;BME280;30484;52.382;5.260;2023-02-18T03:01:39;102037.75;;;12.84;100.00
44765;BME280;30484;52.382;5.260;2023-02-18T03:04:45;102039.38;;;12.66;100.00
44765;BME280;30484;52.382;5.260;2023-02-18T03:07:47;102039.59;;;13.04;100.00
44765;BME280;30484;52.382;5.260;2023-02-18T03:10:41;102038.00;;;12.77;100.00
44765;BME280;30484;52.382;5.260;2023-02-18T03:13:25;102036.28;;;13.19;100.00
44765;BME280;30484;52.382;5.260;2023-02-18T03:16:13;102016.78;;;12.93;100.00
44765;BME280;30484;52.382;5.260;2023-02-18T03:18:56;102013.75;;;13.23;100.00
44765;BME280;30484;52.382;5.260;2023-02-18T03:21:34;102003.56;;;12.89;100.00
44765;BME280;30484;52.382;5.260;2023-02-18T03:24:12;102008.13;;;13.29;100.00
44765;BME280;30484;52.382;5.260;2023-02-18T03:26:51;101986.91;;;13.23;100.00
44765;BME280;30484;52.382;5.260;2023-02-18T03:29:22;101979.38;;;12.90;100.00
44765;BME280;30484;52.382;5.260;2023-02-18T03:31:56;101979.78;;;13.22;100.00
44765;BME280;30484;52.382;5.260;2023-02-18T03:34:34;101970.47;;;12.90;100.00
44765;BME280;30484;52.382;5.260;2023-02-18T03:37:07;101959.47;;;13.17;100.00
44765;BME280;30484;52.382;5.260;2023-02-18T03:39:45;101955.44;;;13.06;100.00
44765;BME280;30484;52.382;5.260;2023-02-18T03:42:18;101963.56;;;13.05;100.00
44765;BME280;30484;52.382;5.260;2023-02-18T03:45:04;101940.56;;;12.99;100.00
44765;BME280;30484;52.382;5.260;2023-02-18T03:47:34;101931.09;;;13.11;100.00
44765;BME280;30484;52.382;5.260;2023-02-18T03:50:08;101927.69;;;13.07;100.00
44765;BME280;30484;52.382;5.260;2023-02-18T03:52:38;101931.38;;;13.25;100.00
44765;BME280;30484;52.382;5.260;2023-02-18T03:55:10;101925.94;;;13.27;100.00
44765;BME280;30484;52.382;5.260;2023-02-18T03:57:41;101902.59;;;12.88;100.00
44765;BME280;30484;52.382;5.260;2023-02-18T04:00:11;101920.56;;;13.06;100.00
44765;BME280;30484;52.382;5.260;2023-02-18T04:02:45;101924.25;;;13.24;100.00
44765;BME280;30484;52.382;5.260;2023-02-18T04:05:17;101924.88;;;12.90;100.00
44765;BME280;30484;52.382;5.260;2023-02-18T04:07:50;101926.47;;;12.94;100.00
44765;BME280;30484;52.382;5.260;2023-02-18T04:10:22;101924.66;;;13.15;100.00
44765;BME280;30484;52.382;5.260;2023-02-18T04:12:51;101911.72;;;13.04;100.00
44765;BME280;30484;52.382;5.260;2023-02-18T04:15:21;101904.63;;;13.44;100.00
44765;BME280;30484;52.382;5.260;2023-02-18T04:18:00;101909.59;;;13.12;100.00
44765;BME280;30484;52.382;5.260;2023-02-18T04:20:32;101910.97;;;13.01;100.00
44765;BME280;30484;52.382;5.260;2023-02-18T04:23:04;101903.00;;;12.99;100.00
44765;BME280;30484;52.382;5.260;2023-02-18T04:25:35;101905.75;;;13.18;100.00
44765;BME280;30484;52.382;5.260;2023-02-18T04:28:05;101897.97;;;12.91;100.00
44765;BME280;30484;52.382;5.260;2023-02-18T04:30:38;101903.72;;;12.82;100.00
44765;BME280;30484;52.382;5.260;2023-02-18T04:33:19;101889.38;;;13.04;100.00
44765;BME280;30484;52.382;5.260;2023-02-18T04:35:48;101891.00;;;12.87;100.00
44765;BME280;30484;52.382;5.260;2023-02-18T04:38:18;101873.94;;;12.68;100.00
44765;BME280;30484;52.382;5.260;2023-02-18T04:41:17;101880.69;;;12.99;100.00
44765;BME280;30484;52.382;5.260;2023-02-18T04:44:00;101867.66;;;12.89;100.00
44765;BME280;30484;52.382;5.260;2023-02-18T04:46:30;101870.56;;;12.63;100.00
44765;BME280;30484;52.382;5.260;2023-02-18T04:49:13;101879.84;;;12.97;100.00
44765;BME280;30484;52.382;5.260;2023-02-18T04:51:43;101855.25;;;12.87;100.00
44765;BME280;30484;52.382;5.260;2023-02-18T04:54:17;101870.53;;;12.85;100.00
44765;BME280;30484;52.382;5.260;2023-02-18T04:56:48;101861.81;;;12.59;100.00
44765;BME280;30484;52.382;5.260;2023-02-18T04:59:17;101867.91;;;13.04;100.00
44765;BME280;30484;52.382;5.260;2023-02-18T05:02:03;101866.44;;;12.97;100.00
44765;BME280;30484;52.382;5.260;2023-02-18T05:04:39;101865.16;;;13.05;100.00
44765;BME280;30484;52.382;5.260;2023-02-18T05:07:16;101856.94;;;12.69;100.00
44765;BME280;30484;52.382;5.260;2023-02-18T05:09:59;101860.44;;;12.91;100.00
44765;BME280;30484;52.382;5.260;2023-02-18T05:12:33;101844.50;;;12.87;100.00
44765;BME280;30484;52.382;5.260;2023-02-18T05:15:11;101838.91;;;12.93;100.00
44765;BME280;30484;52.382;5.260;2023-02-18T05:17:48;101830.09;;;12.89;100.00
44765;BME280;30484;52.382;5.260;2023-02-18T05:20:45;101828.56;;;13.04;100.00
44765;BME280;30484;52.382;5.260;2023-02-18T05:23:16;101831.09;;;13.07;100.00
44765;BME280;30484;52.382;5.260;2023-02-18T05:25:48;101834.06;;;12.81;100.00
44765;BME280;30484;52.382;5.260;2023-02-18T05:28:21;101830.44;;;12.82;100.00
44765;BME280;30484;52.382;5.260;2023-02-18T05:30:50;101827.56;;;12.86;100.00
44765;BME280;30484;52.382;5.260;2023-02-18T05:33:21;101819.13;;;12.95;100.00
44765;BME280;30484;52.382;5.260;2023-02-18T05:35:50;101820.53;;;13.23;100.00
44765;BME280;30484;52.382;5.260;2023-02-18T05:38:19;101814.72;;;13.13;100.00
44765;BME280;30484;52.382;5.260;2023-02-18T05:41:01;101822.13;;;13.27;100.00
44765;BME280;30484;52.382;5.260;2023-02-18T05:43:34;101818.94;;;13.19;100.00
44765;BME280;30484;52.382;5.260;2023-02-18T05:46:25;101810.72;;;13.43;100.00
44765;BME280;30484;52.382;5.260;2023-02-18T05:48:56;101808.94;;;13.23;100.00
44765;BME280;30484;52.382;5.260;2023-02-18T05:51:27;101803.28;;;13.10;100.00
44765;BME280;30484;52.382;5.260;2023-02-18T05:53:58;101798.41;;;13.39;100.00
44765;BME280;30484;52.382;5.260;2023-02-18T05:56:28;101795.75;;;13.18;100.00
44765;BME280;30484;52.382;5.260;2023-02-18T05:59:13;101801.91;;;13.00;100.00
44765;BME280;30484;52.382;5.260;2023-02-18T06:01:43;101801.22;;;13.15;100.00
44765;BME280;30484;52.382;5.260;2023-02-18T06:04:14;101807.19;;;13.22;100.00
44765;BME280;30484;52.382;5.260;2023-02-18T06:06:58;101816.41;;;13.16;100.00
44765;BME280;30484;52.382;5.260;2023-02-18T06:09:27;101814.53;;;13.18;100.00
44765;BME280;30484;52.382;5.260;2023-02-18T06:11:59;101807.25;;;13.20;100.00
44765;BME280;30484;52.382;5.260;2023-02-18T06:14:39;101820.88;;;13.36;100.00
44765;BME280;30484;52.382;5.260;2023-02-18T06:17:12;101813.72;;;13.37;100.00
44765;BME280;30484;52.382;5.260;2023-02-18T06:19:44;101811.19;;;13.32;100.00
44765;BME280;30484;52.382;5.260;2023-02-18T06:22:17;101798.78;;;13.29;100.00
44765;BME280;30484;52.382;5.260;2023-02-18T06:24:47;101808.50;;;13.32;100.00
44765;BME280;30484;52.382;5.260;2023-02-18T06:27:17;101805.03;;;13.30;100.00
44765;BME280;30484;52.382;5.260;2023-02-18T06:29:49;101801.59;;;13.26;100.00
44765;BME280;30484;52.382;5.260;2023-02-18T06:32:20;101813.75;;;13.35;100.00
44765;BME280;30484;52.382;5.260;2023-02-18T06:34:49;101804.13;;;13.29;100.00
44765;BME280;30484;52.382;5.260;2023-02-18T06:37:23;101801.13;;;13.18;100.00
44765;BME280;30484;52.382;5.260;2023-02-18T06:40:17;101787.25;;;13.08;100.00
44765;BME280;30484;52.382;5.260;2023-02-18T06:43:17;101794.91;;;12.97;100.00
44765;BME280;30484;52.382;5.260;2023-02-18T06:46:11;101775.44;;;13.32;100.00
44765;BME280;30484;52.382;5.260;2023-02-18T06:48:57;101779.50;;;13.21;100.00
44765;BME280;30484;52.382;5.260;2023-02-18T06:51:30;101777.44;;;13.26;100.00
44765;BME280;30484;52.382;5.260;2023-02-18T06:54:03;101773.84;;;13.27;100.00
44765;BME280;30484;52.382;5.260;2023-02-18T06:56:34;101768.47;;;13.27;100.00
44765;BME280;30484;52.382;5.260;2023-02-18T06:59:07;101776.16;;;13.16;100.00
44765;BME280;30484;52.382;5.260;2023-02-18T07:01:38;101772.56;;;13.36;100.00
44765;BME280;30484;52.382;5.260;2023-02-18T07:04:07;101764.78;;;13.30;100.00
44765;BME280;30484;52.382;5.260;2023-02-18T07:06:38;101769.78;;;13.19;100.00
44765;BME280;30484;52.382;5.260;2023-02-18T07:09:09;101779.78;;;13.34;100.00
44765;BME280;30484;52.382;5.260;2023-02-18T07:11:39;101785.16;;;13.34;100.00
44765;BME280;30484;52.382;5.260;2023-02-18T07:14:09;101778.34;;;13.27;100.00
44765;BME280;30484;52.382;5.260;2023-02-18T07:16:42;101773.06;;;12.86;100.00
44765;BME280;30484;52.382;5.260;2023-02-18T07:19:14;101763.56;;;13.18;100.00
44765;BME280;30484;52.382;5.260;2023-02-18T07:21:47;101763.56;;;13.18;100.00
44765;BME280;30484;52.382;5.260;2023-02-18T07:24:16;101756.66;;;13.12;100.00
44765;BME280;30484;52.382;5.260;2023-02-18T07:26:47;101752.00;;;13.16;100.00
44765;BME280;30484;52.382;5.260;2023-02-18T07:29:18;101762.59;;;13.19;100.00
44765;BME280;30484;52.382;5.260;2023-02-18T07:31:54;101768.28;;;12.92;100.00
44765;BME280;30484;52.382;5.260;2023-02-18T07:34:24;101772.09;;;13.26;100.00
44765;BME280;30484;52.382;5.260;2023-02-18T07:36:57;101784.56;;;12.88;100.00
44765;BME280;30484;52.382;5.260;2023-02-18T07:39:30;101778.44;;;12.86;100.00
44765;BME280;30484;52.382;5.260;2023-02-18T07:42:02;101771.47;;;13.01;100.00
44765;BME280;30484;52.382;5.260;2023-02-18T07:44:32;101778.59;;;13.02;100.00
44765;BME280;30484;52.382;5.260;2023-02-18T07:47:05;101772.00;;;12.90;100.00
44765;BME280;30484;52.382;5.260;2023-02-18T07:49:35;101778.75;;;12.99;100.00
44765;BME280;30484;52.382;5.260;2023-02-18T07:52:05;101779.00;;;12.92;100.00
44765;BME280;30484;52.382;5.260;2023-02-18T07:54:35;101782.41;;;12.77;100.00
44765;BME280;30484;52.382;5.260;2023-02-18T07:57:05;101790.72;;;12.50;100.00
44765;BME280;30484;52.382;5.260;2023-02-18T08:00:03;101788.47;;;12.81;100.00
44765;BME280;30484;52.382;5.260;2023-02-18T08:02:36;101778.31;;;13.08;100.00
44765;BME280;30484;52.382;5.260;2023-02-18T08:05:08;101790.19;;;13.02;100.00
44765;BME280;30484;52.382;5.260;2023-02-18T08:07:39;101783.94;;;12.83;100.00
44765;BME280;30484;52.382;5.260;2023-02-18T08:10:13;101792.59;;;12.69;100.00
44765;BME280;30484;52.382;5.260;2023-02-18T08:12:45;101789.31;;;13.02;100.00
44765;BME280;30484;52.382;5.260;2023-02-18T08:15:14;101820.03;;;12.74;100.00
44765;BME280;30484;52.382;5.260;2023-02-18T08:17:46;101804.66;;;12.58;100.00
44765;BME280;30484;52.382;5.260;2023-02-18T08:20:16;101806.22;;;12.42;100.00
44765;BME280;30484;52.382;5.260;2023-02-18T08:22:46;101799.28;;;12.58;100.00
44765;BME280;30484;52.382;5.260;2023-02-18T08:25:19;101789.16;;;12.65;100.00
44765;BME280;30484;52.382;5.260;2023-02-18T08:27:56;101802.22;;;12.73;100.00
44765;BME280;30484;52.382;5.260;2023-02-18T08:30:26;101791.69;;;12.48;100.00
44765;BME280;30484;52.382;5.260;2023-02-18T08:33:04;101778.69;;;12.59;100.00
44765;BME280;30484;52.382;5.260;2023-02-18T08:35:35;101796.47;;;12.62;100.00
44765;BME280;30484;52.382;5.260;2023-02-18T08:38:18;101781.31;;;12.60;100.00
44765;BME280;30484;52.382;5.260;2023-02-18T08:41:09;101801.00;;;12.39;100.00
44765;BME280;30484;52.382;5.260;2023-02-18T08:43:42;101784.13;;;12.57;100.00
44765;BME280;30484;52.382;5.260;2023-02-18T08:46:13;101782.25;;;12.59;100.00
44765;BME280;30484;52.382;5.260;2023-02-18T08:49:07;101782.63;;;12.30;100.00
44765;BME280;30484;52.382;5.260;2023-02-18T08:51:41;101766.84;;;12.65;100.00
44765;BME280;30484;52.382;5.260;2023-02-18T08:54:13;101776.22;;;12.75;100.00
44765;BME280;30484;52.382;5.260;2023-02-18T08:56:43;101777.94;;;12.55;100.00
44765;BME280;30484;52.382;5.260;2023-02-18T08:59:13;101773.56;;;12.54;100.00
44765;BME280;30484;52.382;5.260;2023-02-18T09:01:44;101769.16;;;12.72;100.00
44765;BME280;30484;52.382;5.260;2023-02-18T09:04:17;101771.03;;;12.50;100.00
44765;BME280;30484;52.382;5.260;2023-02-18T09:06:51;101776.44;;;12.70;100.00
44765;BME280;30484;52.382;5.260;2023-02-18T09:09:25;101788.34;;;12.84;100.00
44765;BME280;30484;52.382;5.260;2023-02-18T09:11:56;101795.25;;;12.48;100.00
44765;BME280;30484;52.382;5.260;2023-02-18T09:15:09;101784.94;;;12.80;100.00
44765;BME280;30484;52.382;5.260;2023-02-18T09:17:40;101805.63;;;12.97;100.00
44765;BME280;30484;52.382;5.260;2023-02-18T09:20:10;101796.06;;;12.71;100.00
44765;BME280;30484;52.382;5.260;2023-02-18T09:22:40;101797.13;;;12.87;100.00
44765;BME280;30484;52.382;5.260;2023-02-18T09:25:11;101801.53;;;13.09;100.00
44765;BME280;30484;52.382;5.260;2023-02-18T09:27:40;101808.66;;;12.69;100.00
44765;BME280;30484;52.382;5.260;2023-02-18T09:30:12;101797.28;;;12.84;100.00
44765;BME280;30484;52.382;5.260;2023-02-18T09:32:42;101807.66;;;12.71;100.00
44765;BME280;30484;52.382;5.260;2023-02-18T09:35:12;101782.91;;;12.85;100.00
44765;BME280;30484;52.382;5.260;2023-02-18T09:37:42;101779.66;;;12.78;100.00
44765;BME280;30484;52.382;5.260;2023-02-18T09:40:24;101805.19;;;12.87;100.00
44765;BME280;30484;52.382;5.260;2023-02-18T09:42:57;101781.03;;;12.87;100.00
44765;BME280;30484;52.382;5.260;2023-02-18T09:45:43;101802.41;;;12.89;100.00
44765;BME280;30484;52.382;5.260;2023-02-18T09:48:13;101818.69;;;13.05;100.00
44765;BME280;30484;52.382;5.260;2023-02-18T09:50:47;101821.91;;;13.13;100.00
44765;BME280;30484;52.382;5.260;2023-02-18T09:53:22;101811.69;;;13.21;100.00
44765;BME280;30484;52.382;5.260;2023-02-18T09:56:15;101810.47;;;12.89;100.00
44765;BME280;30484;52.382;5.260;2023-02-18T09:58:53;101815.00;;;13.07;100.00
44765;BME280;30484;52.382;5.260;2023-02-18T10:01:31;101822.34;;;13.23;100.00
44765;BME280;30484;52.382;5.260;2023-02-18T10:04:13;101814.88;;;13.29;100.00
44765;BME280;30484;52.382;5.260;2023-02-18T10:06:44;101816.78;;;13.27;100.00
44765;BME280;30484;52.382;5.260;2023-02-18T10:09:20;101817.84;;;13.63;100.00
44765;BME280;30484;52.382;5.260;2023-02-18T10:12:21;101828.00;;;13.56;100.00
44765;BME280;30484;52.382;5.260;2023-02-18T10:15:02;101817.56;;;13.50;100.00
44765;BME280;30484;52.382;5.260;2023-02-18T10:17:41;101822.31;;;13.43;100.00
44765;BME280;30484;52.382;5.260;2023-02-18T10:20:18;101824.88;;;13.46;100.00
44765;BME280;30484;52.382;5.260;2023-02-18T10:22:48;101825.25;;;14.13;100.00
44765;BME280;30484;52.382;5.260;2023-02-18T10:25:23;101835.63;;;13.66;100.00
44765;BME280;30484;52.382;5.260;2023-02-18T10:28:04;101835.97;;;13.58;100.00
44765;BME280;30484;52.382;5.260;2023-02-18T10:30:40;101848.81;;;13.89;100.00
44765;BME280;30484;52.382;5.260;2023-02-18T10:33:31;101836.53;;;14.03;100.00
44765;BME280;30484;52.382;5.260;2023-02-18T10:36:23;101835.53;;;13.86;100.00
44765;BME280;30484;52.382;5.260;2023-02-18T10:39:36;101841.44;;;14.12;100.00
44765;BME280;30484;52.382;5.260;2023-02-18T10:42:25;101834.66;;;14.22;100.00
44765;BME280;30484;52.382;5.260;2023-02-18T10:45:08;101845.56;;;14.19;100.00
44765;BME280;30484;52.382;5.260;2023-02-18T10:47:53;101842.03;;;14.36;100.00
44765;BME280;30484;52.382;5.260;2023-02-18T10:50:33;101842.00;;;14.55;100.00
44765;BME280;30484;52.382;5.260;2023-02-18T10:53:11;101846.38;;;14.21;100.00
44765;BME280;30484;52.382;5.260;2023-02-18T10:55:58;101841.75;;;14.60;100.00
44765;BME280;30484;52.382;5.260;2023-02-18T10:58:44;101834.78;;;14.56;100.00
44765;BME280;30484;52.382;5.260;2023-02-18T11:01:16;101857.59;;;14.66;100.00
44765;BME280;30484;52.382;5.260;2023-02-18T11:04:02;101846.28;;;14.59;100.00
44765;BME280;30484;52.382;5.260;2023-02-18T11:06:52;101861.16;;;14.84;100.00
44765;BME280;30484;52.382;5.260;2023-02-18T11:09:36;101851.91;;;14.90;100.00
44765;BME280;30484;52.382;5.260;2023-02-18T11:12:18;101852.38;;;14.63;100.00
44765;BME280;30484;52.382;5.260;2023-02-18T11:15:21;101856.56;;;14.69;100.00
44765;BME280;30484;52.382;5.260;2023-02-18T11:18:29;101853.63;;;14.56;100.00
44765;BME280;30484;52.382;5.260;2023-02-18T11:21:33;101836.69;;;14.54;100.00
44765;BME280;30484;52.382;5.260;2023-02-18T11:24:48;101853.56;;;14.21;100.00
44765;BME280;30484;52.382;5.260;2023-02-18T11:27:29;101856.25;;;14.21;100.00
44765;BME280;30484;52.382;5.260;2023-02-18T11:30:22;101861.03;;;14.33;100.00
44765;BME280;30484;52.382;5.260;2023-02-18T11:33:27;101853.44;;;14.41;100.00
44765;BME280;30484;52.382;5.260;2023-02-18T11:36:29;101857.41;;;14.15;100.00
44765;BME280;30484;52.382;5.260;2023-02-18T12:07:25;101860.66;;;15.44;100.00
44765;BME280;30484;52.382;5.260;2023-02-18T12:11:00;101838.09;;;15.47;100.00
44765;BME280;30484;52.382;5.260;2023-02-18T12:15:07;101859.97;;;15.41;100.00
44765;BME280;30484;52.382;5.260;2023-02-18T12:22:59;101846.06;;;15.48;100.00
44765;BME280;30484;52.382;5.260;2023-02-18T12:25:39;101852.06;;;15.87;100.00
44765;BME280;30484;52.382;5.260;2023-02-18T12:28:23;101857.88;;;15.46;100.00
44765;BME280;30484;52.382;5.260;2023-02-18T12:31:20;101863.16;;;15.31;100.00
44765;BME280;30484;52.382;5.260;2023-02-18T12:37:00;101851.31;;;15.18;100.00
44765;BME280;30484;52.382;5.260;2023-02-18T12:39:59;101865.78;;;15.49;100.00
44765;BME280;30484;52.382;5.260;2023-02-18T12:42:44;101864.75;;;15.85;100.00
44765;BME280;30484;52.382;5.260;2023-02-18T12:45:44;101848.47;;;15.70;100.00
44765;BME280;30484;52.382;5.260;2023-02-18T12:48:37;101857.75;;;15.65;100.00
44765;BME280;30484;52.382;5.260;2023-02-18T12:51:41;101860.72;;;15.76;100.00
44765;BME280;30484;52.382;5.260;2023-02-18T12:54:35;101859.00;;;15.91;100.00
44765;BME280;30484;52.382;5.260;2023-02-18T12:57:40;101866.88;;;15.29;100.00
44765;BME280;30484;52.382;5.260;2023-02-18T13:04:00;101874.81;;;15.97;100.00
44765;BME280;30484;52.382;5.260;2023-02-18T13:06:52;101880.16;;;15.32;100.00
44765;BME280;30484;52.382;5.260;2023-02-18T13:09:35;101870.22;;;15.50;100.00
44765;BME280;30484;52.382;5.260;2023-02-18T13:12:19;101884.00;;;15.77;100.00
44765;BME280;30484;52.382;5.260;2023-02-18T13:14:55;101886.31;;;15.51;100.00
44765;BME280;30484;52.382;5.260;2023-02-18T13:17:32;101888.38;;;16.12;100.00
44765;BME280;30484;52.382;5.260;2023-02-18T13:20:08;101890.22;;;15.62;100.00
44765;BME280;30484;52.382;5.260;2023-02-18T13:22:42;101901.13;;;15.76;100.00
44765;BME280;30484;52.382;5.260;2023-02-18T13:25:12;101890.66;;;16.03;100.00
44765;BME280;30484;52.382;5.260;2023-02-18T13:27:49;101891.44;;;15.56;100.00
44765;BME280;30484;52.382;5.260;2023-02-18T13:30:27;101882.84;;;15.65;100.00
44765;BME280;30484;52.382;5.260;2023-02-18T13:33:08;101885.94;;;15.42;100.00
44765;BME280;30484;52.382;5.260;2023-02-18T13:35:47;101885.84;;;15.77;100.00
44765;BME280;30484;52.382;5.260;2023-02-18T13:38:47;101887.03;;;15.71;100.00
44765;BME280;30484;52.382;5.260;2023-02-18T13:41:18;101892.53;;;15.69;100.00
44765;BME280;30484;52.382;5.260;2023-02-18T13:43:48;101891.31;;;15.42;100.00
44765;BME280;30484;52.382;5.260;2023-02-18T13:46:20;101897.00;;;15.53;100.00
44765;BME280;30484;52.382;5.260;2023-02-18T13:48:53;101894.00;;;15.42;100.00
44765;BME280;30484;52.382;5.260;2023-02-18T13:51:30;101887.44;;;15.63;100.00
44765;BME280;30484;52.382;5.260;2023-02-18T13:54:05;101891.09;;;15.96;100.00
44765;BME280;30484;52.382;5.260;2023-02-18T13:56:42;101880.75;;;15.88;100.00
44765;BME280;30484;52.382;5.260;2023-02-18T13:59:18;101888.25;;;15.65;100.00
44765;BME280;30484;52.382;5.260;2023-02-18T14:01:49;101895.00;;;15.90;100.00
44765;BME280;30484;52.382;5.260;2023-02-18T14:04:35;101890.72;;;15.86;100.00
44765;BME280;30484;52.382;5.260;2023-02-18T14:10:03;101884.44;;;15.36;100.00
44765;BME280;30484;52.382;5.260;2023-02-18T14:12:38;101883.63;;;15.67;100.00
44765;BME280;30484;52.382;5.260;2023-02-18T14:15:49;101882.13;;;15.79;100.00
44765;BME280;30484;52.382;5.260;2023-02-18T14:21:21;101890.19;;;15.46;100.00
44765;BME280;30484;52.382;5.260;2023-02-18T14:23:58;101891.72;;;15.67;100.00
44765;BME280;30484;52.382;5.260;2023-02-18T14:26:29;101888.63;;;15.42;100.00
44765;BME280;30484;52.382;5.260;2023-02-18T14:29:01;101895.09;;;15.55;100.00
44765;BME280;30484;52.382;5.260;2023-02-18T14:31:50;101893.19;;;15.57;100.00